sensor_id;sensor_type;location;lat;lon;timestamp;pressure;altitude;pressure_sealevel;temperature
80246;BMP280;69558;39.208;-77.226;2024-02-28T00:01:52;99523.09;;;16.26
80246;BMP280;69558;39.208;-77.226;2024-02-28T00:04:18;99522.28;;;16.25
80246;BMP280;69558;39.208;-77.226;2024-02-28T00:06:44;99517.84;;;16.26
80246;BMP280;69558;39.208;-77.226;2024-02-28T00:09:12;99509.75;;;16.20
80246;BMP280;69558;39.208;-77.226;2024-02-28T00:11:43;99519.22;;;16.21
80246;BMP280;69558;39.208;-77.226;2024-02-28T00:14:10;99527.50;;;16.25
80246;BMP280;69558;39.208;-77.226;2024-02-28T00:16:36;99523.28;;;16.24
80246;BMP280;69558;39.208;-77.226;2024-02-28T00:19:03;99521.47;;;16.25
80246;BMP280;69558;39.208;-77.226;2024-02-28T00:21:28;99522.47;;;16.24
80246;BMP280;69558;39.208;-77.226;2024-02-28T00:23:54;99524.09;;;16.25
80246;BMP280;69558;39.208;-77.226;2024-02-28T00:26:20;99522.47;;;16.24
80246;BMP280;69558;39.208;-77.226;2024-02-28T00:28:46;99512.56;;;16.19
80246;BMP280;69558;39.208;-77.226;2024-02-28T00:31:12;99511.81;;;16.25
80246;BMP280;69558;39.208;-77.226;2024-02-28T00:33:37;99510.00;;;16.26
80246;BMP280;69558;39.208;-77.226;2024-02-28T00:36:03;99502.34;;;16.24
80246;BMP280;69558;39.208;-77.226;2024-02-28T00:38:29;99505.97;;;16.23
80246;BMP280;69558;39.208;-77.226;2024-02-28T00:40:55;99506.59;;;16.25
80246;BMP280;69558;39.208;-77.226;2024-02-28T00:43:21;99494.50;;;16.24
80246;BMP280;69558;39.208;-77.226;2024-02-28T00:45:47;99508.38;;;16.25
80246;BMP280;69558;39.208;-77.226;2024-02-28T00:48:14;99508.16;;;16.26
80246;BMP280;69558;39.208;-77.226;2024-02-28T00:50:39;99505.56;;;16.26
80246;BMP280;69558;39.208;-77.226;2024-02-28T00:53:05;99498.53;;;16.27
80246;BMP280;69558;39.208;-77.226;2024-02-28T00:55:31;99484.38;;;16.21
80246;BMP280;69558;39.208;-77.226;2024-02-28T00:57:57;99497.13;;;16.24
80246;BMP280;69558;39.208;-77.226;2024-02-28T01:00:22;99510.63;;;16.28
80246;BMP280;69558;39.208;-77.226;2024-02-28T01:02:48;99515.06;;;16.27
80246;BMP280;69558;39.208;-77.226;2024-02-28T01:05:14;99514.25;;;16.27
80246;BMP280;69558;39.208;-77.226;2024-02-28T01:07:40;99524.72;;;16.27
80246;BMP280;69558;39.208;-77.226;2024-02-28T01:10:07;99517.03;;;16.25
80246;BMP280;69558;39.208;-77.226;2024-02-28T01:12:33;99510.19;;;16.24
80246;BMP280;69558;39.208;-77.226;2024-02-28T01:14:59;99511.81;;;16.25
80246;BMP280;69558;39.208;-77.226;2024-02-28T01:17:25;99517.84;;;16.26
80246;BMP280;69558;39.208;-77.226;2024-02-28T01:19:50;99516.03;;;16.26
80246;BMP280;69558;39.208;-77.226;2024-02-28T01:22:16;99520.66;;;16.24
80246;BMP280;69558;39.208;-77.226;2024-02-28T01:24:42;99506.78;;;16.24
80246;BMP280;69558;39.208;-77.226;2024-02-28T01:27:08;99505.78;;;16.25
80246;BMP280;69558;39.208;-77.226;2024-02-28T01:29:34;99513.63;;;16.25
80246;BMP280;69558;39.208;-77.226;2024-02-28T01:31:59;99502.94;;;16.26
80246;BMP280;69558;39.208;-77.226;2024-02-28T01:34:25;99505.56;;;16.26
80246;BMP280;69558;39.208;-77.226;2024-02-28T01:36:51;99485.47;;;16.27
80246;BMP280;69558;39.208;-77.226;2024-02-28T01:39:17;99492.47;;;16.26
80246;BMP280;69558;39.208;-77.226;2024-02-28T01:41:53;99501.97;;;16.27
80246;BMP280;69558;39.208;-77.226;2024-02-28T01:44:20;99505.16;;;16.23
80246;BMP280;69558;39.208;-77.226;2024-02-28T01:46:47;99511.00;;;16.25
80246;BMP280;69558;39.208;-77.226;2024-02-28T01:49:13;99503.97;;;16.25
80246;BMP280;69558;39.208;-77.226;2024-02-28T01:51:41;99497.13;;;16.24
80246;BMP280;69558;39.208;-77.226;2024-02-28T01:54:08;99497.69;;;16.26
80246;BMP280;69558;39.208;-77.226;2024-02-28T01:56:34;99490.06;;;16.25
80246;BMP280;69558;39.208;-77.226;2024-02-28T01:59:00;99498.72;;;16.25
80246;BMP280;69558;39.208;-77.226;2024-02-28T02:01:27;99487.47;;;16.25
80246;BMP280;69558;39.208;-77.226;2024-02-28T02:03:54;99479.59;;;16.25
80246;BMP280;69558;39.208;-77.226;2024-02-28T02:06:21;99487.47;;;16.25
80246;BMP280;69558;39.208;-77.226;2024-02-28T02:08:48;99479.38;;;16.19
80246;BMP280;69558;39.208;-77.226;2024-02-28T02:11:15;99495.09;;;16.26
80246;BMP280;69558;39.208;-77.226;2024-02-28T02:13:53;99496.13;;;16.25
80246;BMP280;69558;39.208;-77.226;2024-02-28T02:16:20;99495.31;;;16.25
80246;BMP280;69558;39.208;-77.226;2024-02-28T02:18:51;99489.84;;;16.19
80246;BMP280;69558;39.208;-77.226;2024-02-28T02:21:23;99490.06;;;16.25
80246;BMP280;69558;39.208;-77.226;2024-02-28T02:23:49;99491.88;;;16.24
80246;BMP280;69558;39.208;-77.226;2024-02-28T02:26:15;99491.69;;;16.26
80246;BMP280;69558;39.208;-77.226;2024-02-28T02:28:41;99492.69;;;16.25
80246;BMP280;69558;39.208;-77.226;2024-02-28T02:31:08;99490.06;;;16.25
80246;BMP280;69558;39.208;-77.226;2024-02-28T02:33:34;99490.25;;;16.23
80246;BMP280;69558;39.208;-77.226;2024-02-28T02:36:00;99486.47;;;16.26
80246;BMP280;69558;39.208;-77.226;2024-02-28T02:38:25;99491.69;;;16.26
80246;BMP280;69558;39.208;-77.226;2024-02-28T02:40:52;99481.75;;;16.21
80246;BMP280;69558;39.208;-77.226;2024-02-28T02:43:18;99496.31;;;16.24
80246;BMP280;69558;39.208;-77.226;2024-02-28T02:45:44;99493.69;;;16.24
80246;BMP280;69558;39.208;-77.226;2024-02-28T02:48:10;99493.69;;;16.24
80246;BMP280;69558;39.208;-77.226;2024-02-28T02:50:36;99469.91;;;16.18
80246;BMP280;69558;39.208;-77.226;2024-02-28T02:53:03;99480.19;;;16.20
80246;BMP280;69558;39.208;-77.226;2024-02-28T02:55:29;99473.09;;;16.20
80246;BMP280;69558;39.208;-77.226;2024-02-28T02:57:56;99474.38;;;16.25
80246;BMP280;69558;39.208;-77.226;2024-02-28T03:00:22;99480.00;;;16.21
80246;BMP280;69558;39.208;-77.226;2024-02-28T03:02:48;99472.94;;;16.22
80246;BMP280;69558;39.208;-77.226;2024-02-28T03:05:14;99470.13;;;16.24
80246;BMP280;69558;39.208;-77.226;2024-02-28T03:07:39;99486.47;;;16.26
80246;BMP280;69558;39.208;-77.226;2024-02-28T03:10:06;99492.69;;;16.25
80246;BMP280;69558;39.208;-77.226;2024-02-28T03:12:33;99481.41;;;16.24
80246;BMP280;69558;39.208;-77.226;2024-02-28T03:14:59;99471.75;;;16.25
80246;BMP280;69558;39.208;-77.226;2024-02-28T03:17:24;99456.81;;;16.18
80246;BMP280;69558;39.208;-77.226;2024-02-28T03:19:51;99462.09;;;16.25
80246;BMP280;69558;39.208;-77.226;2024-02-28T03:22:16;99463.91;;;16.25
80246;BMP280;69558;39.208;-77.226;2024-02-28T03:24:42;99467.34;;;16.25
80246;BMP280;69558;39.208;-77.226;2024-02-28T03:27:08;99466.72;;;16.23
80246;BMP280;69558;39.208;-77.226;2024-02-28T03:29:34;99473.38;;;16.26
80246;BMP280;69558;39.208;-77.226;2024-02-28T03:32:00;99476.00;;;16.26
80246;BMP280;69558;39.208;-77.226;2024-02-28T03:34:26;99474.00;;;16.28
80246;BMP280;69558;39.208;-77.226;2024-02-28T03:36:51;99454.88;;;16.27
80246;BMP280;69558;39.208;-77.226;2024-02-28T03:39:17;99444.78;;;16.24
80246;BMP280;69558;39.208;-77.226;2024-02-28T03:41:43;99443.78;;;16.25
80246;BMP280;69558;39.208;-77.226;2024-02-28T03:44:09;99441.97;;;16.26
80246;BMP280;69558;39.208;-77.226;2024-02-28T03:46:35;99427.03;;;16.19
80246;BMP280;69558;39.208;-77.226;2024-02-28T03:49:01;99426.28;;;16.26
80246;BMP280;69558;39.208;-77.226;2024-02-28T03:51:26;99424.44;;;16.26
80246;BMP280;69558;39.208;-77.226;2024-02-28T03:53:52;99407.78;;;16.27
80246;BMP280;69558;39.208;-77.226;2024-02-28T03:56:25;99415.44;;;16.29
80246;BMP280;69558;39.208;-77.226;2024-02-28T03:58:52;99406.13;;;16.26
80246;BMP280;69558;39.208;-77.226;2024-02-28T04:01:18;99381.88;;;16.11
80246;BMP280;69558;39.208;-77.226;2024-02-28T04:03:44;99390.03;;;16.23
80246;BMP280;69558;39.208;-77.226;2024-02-28T04:06:12;99398.91;;;16.28
80246;BMP280;69558;39.208;-77.226;2024-02-28T04:08:40;99399.13;;;16.27
80246;BMP280;69558;39.208;-77.226;2024-02-28T04:11:06;99414.19;;;16.25
80246;BMP280;69558;39.208;-77.226;2024-02-28T04:13:32;99412.56;;;16.24
80246;BMP280;69558;39.208;-77.226;2024-02-28T04:15:58;99403.50;;;16.26
80246;BMP280;69558;39.208;-77.226;2024-02-28T04:18:24;99384.41;;;16.26
80246;BMP280;69558;39.208;-77.226;2024-02-28T04:20:50;99389.66;;;16.26
80246;BMP280;69558;39.208;-77.226;2024-02-28T04:23:16;99380.59;;;16.28
80246;BMP280;69558;39.208;-77.226;2024-02-28T04:25:42;99373.34;;;16.24
80246;BMP280;69558;39.208;-77.226;2024-02-28T04:28:08;99378.19;;;16.27
80246;BMP280;69558;39.208;-77.226;2024-02-28T04:30:34;99379.97;;;16.26
80246;BMP280;69558;39.208;-77.226;2024-02-28T04:33:00;99373.94;;;16.26
80246;BMP280;69558;39.208;-77.226;2024-02-28T04:35:26;99376.38;;;16.27
80246;BMP280;69558;39.208;-77.226;2024-02-28T04:37:52;99376.38;;;16.27
80246;BMP280;69558;39.208;-77.226;2024-02-28T04:40:18;99364.25;;;16.19
80246;BMP280;69558;39.208;-77.226;2024-02-28T04:42:43;99367.91;;;16.25
80246;BMP280;69558;39.208;-77.226;2024-02-28T04:45:09;99374.56;;;16.28
80246;BMP280;69558;39.208;-77.226;2024-02-28T04:47:36;99369.50;;;16.26
80246;BMP280;69558;39.208;-77.226;2024-02-28T04:50:03;99380.78;;;16.27
80246;BMP280;69558;39.208;-77.226;2024-02-28T04:52:33;99381.38;;;16.22
80246;BMP280;69558;39.208;-77.226;2024-02-28T04:54:59;99374.16;;;16.24
80246;BMP280;69558;39.208;-77.226;2024-02-28T04:57:25;99373.13;;;16.25
80246;BMP280;69558;39.208;-77.226;2024-02-28T04:59:51;99360.88;;;16.26
80246;BMP280;69558;39.208;-77.226;2024-02-28T05:02:18;99361.63;;;16.26
80246;BMP280;69558;39.208;-77.226;2024-02-28T05:04:43;99344.16;;;16.27
80246;BMP280;69558;39.208;-77.226;2024-02-28T05:07:09;99328.28;;;16.28
80246;BMP280;69558;39.208;-77.226;2024-02-28T05:09:35;99317.59;;;16.30
80246;BMP280;69558;39.208;-77.226;2024-02-28T05:12:02;99311.38;;;16.31
80246;BMP280;69558;39.208;-77.226;2024-02-28T05:14:28;99301.47;;;16.26
80246;BMP280;69558;39.208;-77.226;2024-02-28T05:16:54;99305.72;;;16.27
80246;BMP280;69558;39.208;-77.226;2024-02-28T05:19:20;99307.16;;;16.30
80246;BMP280;69558;39.208;-77.226;2024-02-28T05:21:46;99292.44;;;16.29
80246;BMP280;69558;39.208;-77.226;2024-02-28T05:24:13;99302.53;;;16.32
80246;BMP280;69558;39.208;-77.226;2024-02-28T05:26:39;99298.28;;;16.31
80246;BMP280;69558;39.208;-77.226;2024-02-28T05:29:05;99300.91;;;16.31
80246;BMP280;69558;39.208;-77.226;2024-02-28T05:31:32;99303.09;;;16.27
80246;BMP280;69558;39.208;-77.226;2024-02-28T05:33:59;99305.34;;;16.30
80246;BMP280;69558;39.208;-77.226;2024-02-28T05:36:27;99309.56;;;16.31
80246;BMP280;69558;39.208;-77.226;2024-02-28T05:38:56;99319.22;;;16.31
80246;BMP280;69558;39.208;-77.226;2024-02-28T05:41:22;99316.19;;;16.27
80246;BMP280;69558;39.208;-77.226;2024-02-28T05:43:48;99313.59;;;16.34
80246;BMP280;69558;39.208;-77.226;2024-02-28T05:46:15;99313.78;;;16.32
80246;BMP280;69558;39.208;-77.226;2024-02-28T05:48:41;99319.22;;;16.31
80246;BMP280;69558;39.208;-77.226;2024-02-28T05:51:07;99300.28;;;16.29
80246;BMP280;69558;39.208;-77.226;2024-02-28T05:53:34;99296.28;;;16.33
80246;BMP280;69558;39.208;-77.226;2024-02-28T05:56:07;99288.25;;;16.34
80246;BMP280;69558;39.208;-77.226;2024-02-28T05:58:46;99274.97;;;16.36
80246;BMP280;69558;39.208;-77.226;2024-02-28T06:01:14;99270.13;;;16.39
80246;BMP280;69558;39.208;-77.226;2024-02-28T06:03:40;99273.41;;;16.41
80246;BMP280;69558;39.208;-77.226;2024-02-28T06:06:06;99262.47;;;16.38
80246;BMP280;69558;39.208;-77.226;2024-02-28T06:08:33;99267.13;;;16.42
80246;BMP280;69558;39.208;-77.226;2024-02-28T06:11:00;99271.00;;;16.46
80246;BMP280;69558;39.208;-77.226;2024-02-28T06:13:27;99273.38;;;16.48
80246;BMP280;69558;39.208;-77.226;2024-02-28T06:15:55;99269.75;;;16.49
80246;BMP280;69558;39.208;-77.226;2024-02-28T06:18:21;99256.69;;;16.49
80246;BMP280;69558;39.208;-77.226;2024-02-28T06:20:48;99256.88;;;16.47
80246;BMP280;69558;39.208;-77.226;2024-02-28T06:23:15;99255.28;;;16.46
80246;BMP280;69558;39.208;-77.226;2024-02-28T06:25:40;99246.84;;;16.51
80246;BMP280;69558;39.208;-77.226;2024-02-28T06:28:06;99241.78;;;16.49
80246;BMP280;69558;39.208;-77.226;2024-02-28T06:30:33;99256.69;;;16.49
80246;BMP280;69558;39.208;-77.226;2024-02-28T06:32:59;99254.88;;;16.49
80246;BMP280;69558;39.208;-77.226;2024-02-28T06:35:26;99233.94;;;16.49
80246;BMP280;69558;39.208;-77.226;2024-02-28T06:37:51;99228.09;;;16.47
80246;BMP280;69558;39.208;-77.226;2024-02-28T06:40:17;99227.09;;;16.48
80246;BMP280;69558;39.208;-77.226;2024-02-28T06:42:44;99220.03;;;16.42
80246;BMP280;69558;39.208;-77.226;2024-02-28T06:45:10;99228.69;;;16.49
80246;BMP280;69558;39.208;-77.226;2024-02-28T06:47:36;99208.34;;;16.45
80246;BMP280;69558;39.208;-77.226;2024-02-28T06:50:06;99200.91;;;16.48
80246;BMP280;69558;39.208;-77.226;2024-02-28T06:52:33;99204.53;;;16.47
80246;BMP280;69558;39.208;-77.226;2024-02-28T06:55:00;99201.09;;;16.47
80246;BMP280;69558;39.208;-77.226;2024-02-28T06:57:29;99195.09;;;16.46
80246;BMP280;69558;39.208;-77.226;2024-02-28T06:59:54;99170.72;;;16.46
80246;BMP280;69558;39.208;-77.226;2024-02-28T07:02:20;99158.22;;;16.48
80246;BMP280;69558;39.208;-77.226;2024-02-28T07:04:46;99151.38;;;16.47
80246;BMP280;69558;39.208;-77.226;2024-02-28T07:07:12;99162.25;;;16.44
80246;BMP280;69558;39.208;-77.226;2024-02-28T07:09:38;99168.94;;;16.46
80246;BMP280;69558;39.208;-77.226;2024-02-28T07:12:05;99159.22;;;16.47
80246;BMP280;69558;39.208;-77.226;2024-02-28T07:14:31;99161.84;;;16.47
80246;BMP280;69558;39.208;-77.226;2024-02-28T07:16:58;99159.22;;;16.47
80246;BMP280;69558;39.208;-77.226;2024-02-28T07:19:24;99163.69;;;16.46
80246;BMP280;69558;39.208;-77.226;2024-02-28T07:21:50;99149.97;;;16.44
80246;BMP280;69558;39.208;-77.226;2024-02-28T07:24:16;99142.13;;;16.44
80246;BMP280;69558;39.208;-77.226;2024-02-28T07:26:42;99161.06;;;16.46
80246;BMP280;69558;39.208;-77.226;2024-02-28T07:29:07;99163.25;;;16.43
80246;BMP280;69558;39.208;-77.226;2024-02-28T07:31:33;99173.72;;;16.43
80246;BMP280;69558;39.208;-77.226;2024-02-28T07:33:59;99184.63;;;16.46
80246;BMP280;69558;39.208;-77.226;2024-02-28T07:36:25;99192.47;;;16.46
80246;BMP280;69558;39.208;-77.226;2024-02-28T07:38:51;99200.50;;;16.45
80246;BMP280;69558;39.208;-77.226;2024-02-28T07:41:18;99203.13;;;16.45
80246;BMP280;69558;39.208;-77.226;2024-02-28T07:43:44;99210.81;;;16.46
80246;BMP280;69558;39.208;-77.226;2024-02-28T07:46:10;99202.94;;;16.46
80246;BMP280;69558;39.208;-77.226;2024-02-28T07:48:39;99192.66;;;16.45
80246;BMP280;69558;39.208;-77.226;2024-02-28T07:51:09;99191.69;;;16.46
80246;BMP280;69558;39.208;-77.226;2024-02-28T07:53:35;99177.53;;;16.40
80246;BMP280;69558;39.208;-77.226;2024-02-28T07:56:01;99193.47;;;16.45
80246;BMP280;69558;39.208;-77.226;2024-02-28T07:58:27;99213.41;;;16.46
80246;BMP280;69558;39.208;-77.226;2024-02-28T08:00:53;99205.56;;;16.46
80246;BMP280;69558;39.208;-77.226;2024-02-28T08:03:19;99187.00;;;16.48
80246;BMP280;69558;39.208;-77.226;2024-02-28T08:05:45;99185.19;;;16.48
80246;BMP280;69558;39.208;-77.226;2024-02-28T08:08:12;99189.63;;;16.48
80246;BMP280;69558;39.208;-77.226;2024-02-28T08:10:38;99191.44;;;16.47
80246;BMP280;69558;39.208;-77.226;2024-02-28T08:13:05;99173.13;;;16.47
80246;BMP280;69558;39.208;-77.226;2024-02-28T08:15:31;99177.16;;;16.50
80246;BMP280;69558;39.208;-77.226;2024-02-28T08:17:59;99171.91;;;16.50
80246;BMP280;69558;39.208;-77.226;2024-02-28T08:20:24;99167.53;;;16.50
80246;BMP280;69558;39.208;-77.226;2024-02-28T08:22:51;99158.84;;;16.50
80246;BMP280;69558;39.208;-77.226;2024-02-28T08:25:22;99166.88;;;16.48
80246;BMP280;69558;39.208;-77.226;2024-02-28T08:27:48;99165.88;;;16.49
80246;BMP280;69558;39.208;-77.226;2024-02-28T08:30:14;99163.09;;;16.51
80246;BMP280;69558;39.208;-77.226;2024-02-28T08:32:41;99156.63;;;16.47
80246;BMP280;69558;39.208;-77.226;2024-02-28T08:35:08;99163.25;;;16.49
80246;BMP280;69558;39.208;-77.226;2024-02-28T08:37:35;99151.81;;;16.50
80246;BMP280;69558;39.208;-77.226;2024-02-28T08:40:01;99145.75;;;16.50
80246;BMP280;69558;39.208;-77.226;2024-02-28T08:42:28;99142.97;;;16.51
80246;BMP280;69558;39.208;-77.226;2024-02-28T08:44:54;99143.75;;;16.52
80246;BMP280;69558;39.208;-77.226;2024-02-28T08:47:24;99132.06;;;16.48
80246;BMP280;69558;39.208;-77.226;2024-02-28T08:49:51;99138.53;;;16.52
80246;BMP280;69558;39.208;-77.226;2024-02-28T08:52:17;99137.88;;;16.50
80246;BMP280;69558;39.208;-77.226;2024-02-28T08:54:42;99116.78;;;16.51
80246;BMP280;69558;39.208;-77.226;2024-02-28T08:57:08;99130.88;;;16.50
80246;BMP280;69558;39.208;-77.226;2024-02-28T08:59:35;99128.25;;;16.50
80246;BMP280;69558;39.208;-77.226;2024-02-28T09:02:00;99118.75;;;16.49
80246;BMP280;69558;39.208;-77.226;2024-02-28T09:04:26;99113.38;;;16.51
80246;BMP280;69558;39.208;-77.226;2024-02-28T09:06:52;99127.63;;;16.48
80246;BMP280;69558;39.208;-77.226;2024-02-28T09:09:21;99111.91;;;16.48
80246;BMP280;69558;39.208;-77.226;2024-02-28T09:11:46;99114.53;;;16.48
80246;BMP280;69558;39.208;-77.226;2024-02-28T09:14:12;99158.03;;;16.49
80246;BMP280;69558;39.208;-77.226;2024-02-28T09:16:38;99146.16;;;16.47
80246;BMP280;69558;39.208;-77.226;2024-02-28T09:19:04;99137.69;;;16.45
80246;BMP280;69558;39.208;-77.226;2024-02-28T09:21:30;99139.91;;;16.48
80246;BMP280;69558;39.208;-77.226;2024-02-28T09:23:56;99130.25;;;16.48
80246;BMP280;69558;39.208;-77.226;2024-02-28T09:26:22;99107.50;;;16.49
80246;BMP280;69558;39.208;-77.226;2024-02-28T09:28:48;99076.28;;;16.47
80246;BMP280;69558;39.208;-77.226;2024-02-28T09:31:15;99063.81;;;16.49
80246;BMP280;69558;39.208;-77.226;2024-02-28T09:33:43;99071.66;;;16.49
80246;BMP280;69558;39.208;-77.226;2024-02-28T09:36:10;99070.84;;;16.49
80246;BMP280;69558;39.208;-77.226;2024-02-28T09:38:37;99051.94;;;16.47
80246;BMP280;69558;39.208;-77.226;2024-02-28T09:41:04;99049.91;;;16.49
80246;BMP280;69558;39.208;-77.226;2024-02-28T09:43:30;99080.31;;;16.50
80246;BMP280;69558;39.208;-77.226;2024-02-28T09:45:59;99089.00;;;16.50
80246;BMP280;69558;39.208;-77.226;2024-02-28T09:48:27;99072.66;;;16.48
80246;BMP280;69558;39.208;-77.226;2024-02-28T09:51:05;99061.19;;;16.49
80246;BMP280;69558;39.208;-77.226;2024-02-28T09:53:31;99059.56;;;16.48
80246;BMP280;69558;39.208;-77.226;2024-02-28T09:55:57;99055.78;;;16.51
80246;BMP280;69558;39.208;-77.226;2024-02-28T09:58:25;99045.69;;;16.48
80246;BMP280;69558;39.208;-77.226;2024-02-28T10:00:52;99048.91;;;16.50
80246;BMP280;69558;39.208;-77.226;2024-02-28T10:03:21;99035.81;;;16.50
80246;BMP280;69558;39.208;-77.226;2024-02-28T10:05:49;99028.97;;;16.49
80246;BMP280;69558;39.208;-77.226;2024-02-28T10:08:15;99024.75;;;16.48
80246;BMP280;69558;39.208;-77.226;2024-02-28T10:10:47;99024.16;;;16.52
80246;BMP280;69558;39.208;-77.226;2024-02-28T10:13:15;99044.31;;;16.52
80246;BMP280;69558;39.208;-77.226;2024-02-28T10:15:43;99031.22;;;16.52
80246;BMP280;69558;39.208;-77.226;2024-02-28T10:18:08;99029.78;;;16.49
80246;BMP280;69558;39.208;-77.226;2024-02-28T10:20:34;99028.59;;;16.52
80246;BMP280;69558;39.208;-77.226;2024-02-28T10:23:05;99032.00;;;16.52
80246;BMP280;69558;39.208;-77.226;2024-02-28T10:25:44;99009.06;;;16.48
80246;BMP280;69558;39.208;-77.226;2024-02-28T10:28:14;98990.72;;;16.48
80246;BMP280;69558;39.208;-77.226;2024-02-28T10:30:41;98984.47;;;16.49
80246;BMP280;69558;39.208;-77.226;2024-02-28T10:33:12;99008.03;;;16.49
80246;BMP280;69558;39.208;-77.226;2024-02-28T10:35:42;99007.03;;;16.50
80246;BMP280;69558;39.208;-77.226;2024-02-28T10:38:10;99005.63;;;16.47
80246;BMP280;69558;39.208;-77.226;2024-02-28T10:40:37;99016.53;;;16.51
80246;BMP280;69558;39.208;-77.226;2024-02-28T10:43:04;99015.72;;;16.50
80246;BMP280;69558;39.208;-77.226;2024-02-28T10:45:36;99008.69;;;16.51
80246;BMP280;69558;39.208;-77.226;2024-02-28T10:48:04;98995.75;;;16.49
80246;BMP280;69558;39.208;-77.226;2024-02-28T10:50:30;99013.91;;;16.51
80246;BMP280;69558;39.208;-77.226;2024-02-28T10:53:00;99008.69;;;16.51
80246;BMP280;69558;39.208;-77.226;2024-02-28T10:55:34;99019.16;;;16.51
80246;BMP280;69558;39.208;-77.226;2024-02-28T10:58:07;99026.75;;;16.52
80246;BMP280;69558;39.208;-77.226;2024-02-28T11:00:35;99029.78;;;16.49
80246;BMP280;69558;39.208;-77.226;2024-02-28T11:03:03;99030.41;;;16.51
80246;BMP280;69558;39.208;-77.226;2024-02-28T11:05:40;99025.19;;;16.51
80246;BMP280;69558;39.208;-77.226;2024-02-28T11:10:45;99028.59;;;16.52
80246;BMP280;69558;39.208;-77.226;2024-02-28T11:13:24;99018.50;;;16.49
80246;BMP280;69558;39.208;-77.226;2024-02-28T11:15:51;99007.88;;;16.50
80246;BMP280;69558;39.208;-77.226;2024-02-28T11:18:17;98996.38;;;16.45
80246;BMP280;69558;39.208;-77.226;2024-02-28T11:20:44;99001.81;;;16.50
80246;BMP280;69558;39.208;-77.226;2024-02-28T11:23:12;98996.97;;;16.47
80246;BMP280;69558;39.208;-77.226;2024-02-28T11:25:40;99003.00;;;16.47
80246;BMP280;69558;39.208;-77.226;2024-02-28T11:28:07;98983.88;;;16.47
80246;BMP280;69558;39.208;-77.226;2024-02-28T11:30:34;98982.69;;;16.49
80246;BMP280;69558;39.208;-77.226;2024-02-28T11:33:01;98981.88;;;16.49
80246;BMP280;69558;39.208;-77.226;2024-02-28T11:35:27;98958.53;;;16.47
80246;BMP280;69558;39.208;-77.226;2024-02-28T11:37:56;98958.53;;;16.47
80246;BMP280;69558;39.208;-77.226;2024-02-28T11:40:24;98966.59;;;16.46
80246;BMP280;69558;39.208;-77.226;2024-02-28T11:42:54;98974.22;;;16.47
80246;BMP280;69558;39.208;-77.226;2024-02-28T11:45:21;98969.41;;;16.44
80246;BMP280;69558;39.208;-77.226;2024-02-28T11:47:47;98985.72;;;16.46
80246;BMP280;69558;39.208;-77.226;2024-02-28T11:50:15;98991.75;;;16.47
80246;BMP280;69558;39.208;-77.226;2024-02-28T11:52:41;98987.31;;;16.47
80246;BMP280;69558;39.208;-77.226;2024-02-28T11:55:07;99009.66;;;16.50
80246;BMP280;69558;39.208;-77.226;2024-02-28T11:57:34;99002.00;;;16.48
80246;BMP280;69558;39.208;-77.226;2024-02-28T12:00:08;98983.88;;;16.53
80246;BMP280;69558;39.208;-77.226;2024-02-28T12:02:40;98967.38;;;16.53
80246;BMP280;69558;39.208;-77.226;2024-02-28T12:05:06;98968.16;;;16.53
80246;BMP280;69558;39.208;-77.226;2024-02-28T12:07:33;98992.34;;;16.62
80246;BMP280;69558;39.208;-77.226;2024-02-28T12:10:00;98989.50;;;16.64
80246;BMP280;69558;39.208;-77.226;2024-02-28T12:12:27;98987.69;;;16.64
80246;BMP280;69558;39.208;-77.226;2024-02-28T12:14:57;98984.50;;;16.62
80246;BMP280;69558;39.208;-77.226;2024-02-28T12:17:25;98981.88;;;16.62
80246;BMP280;69558;39.208;-77.226;2024-02-28T12:19:51;98982.88;;;16.61
80246;BMP280;69558;39.208;-77.226;2024-02-28T12:22:17;98989.50;;;16.64
80246;BMP280;69558;39.208;-77.226;2024-02-28T12:24:43;98997.97;;;16.66
80246;BMP280;69558;39.208;-77.226;2024-02-28T12:27:09;98995.53;;;16.64
80246;BMP280;69558;39.208;-77.226;2024-02-28T12:29:34;98991.09;;;16.65
80246;BMP280;69558;39.208;-77.226;2024-02-28T12:32:00;98989.09;;;16.67
80246;BMP280;69558;39.208;-77.226;2024-02-28T12:34:26;98998.78;;;16.66
80246;BMP280;69558;39.208;-77.226;2024-02-28T12:36:52;99010.06;;;16.67
80246;BMP280;69558;39.208;-77.226;2024-02-28T12:39:18;99013.84;;;16.64
80246;BMP280;69558;39.208;-77.226;2024-02-28T12:41:44;99025.13;;;16.65
80246;BMP280;69558;39.208;-77.226;2024-02-28T12:44:09;99018.72;;;16.67
80246;BMP280;69558;39.208;-77.226;2024-02-28T12:46:36;98999.56;;;16.67
80246;BMP280;69558;39.208;-77.226;2024-02-28T12:49:04;98983.06;;;16.66
80246;BMP280;69558;39.208;-77.226;2024-02-28T12:51:41;98983.63;;;16.68
80246;BMP280;69558;39.208;-77.226;2024-02-28T12:54:08;98977.84;;;16.66
80246;BMP280;69558;39.208;-77.226;2024-02-28T12:56:36;98978.84;;;16.65
80246;BMP280;69558;39.208;-77.226;2024-02-28T12:59:04;98979.66;;;16.66
80246;BMP280;69558;39.208;-77.226;2024-02-28T13:01:30;98994.34;;;16.67
80246;BMP280;69558;39.208;-77.226;2024-02-28T13:03:56;98995.16;;;16.67
80246;BMP280;69558;39.208;-77.226;2024-02-28T13:06:22;98989.09;;;16.67
80246;BMP280;69558;39.208;-77.226;2024-02-28T13:08:49;98978.00;;;16.65
80246;BMP280;69558;39.208;-77.226;2024-02-28T13:11:21;98962.56;;;16.57
80246;BMP280;69558;39.208;-77.226;2024-02-28T13:13:48;98952.03;;;16.63
80246;BMP280;69558;39.208;-77.226;2024-02-28T13:16:18;98957.06;;;16.65
80246;BMP280;69558;39.208;-77.226;2024-02-28T13:18:45;98955.28;;;16.65
80246;BMP280;69558;39.208;-77.226;2024-02-28T13:21:11;98925.72;;;16.51
80246;BMP280;69558;39.208;-77.226;2024-02-28T13:23:38;98964.13;;;16.64
80246;BMP280;69558;39.208;-77.226;2024-02-28T13:26:04;98983.25;;;16.65
80246;BMP280;69558;39.208;-77.226;2024-02-28T13:28:30;98985.06;;;16.64
80246;BMP280;69558;39.208;-77.226;2024-02-28T13:31:00;98974.00;;;16.62
80246;BMP280;69558;39.208;-77.226;2024-02-28T13:33:27;98961.31;;;16.66
80246;BMP280;69558;39.208;-77.226;2024-02-28T13:35:53;98957.91;;;16.65
80246;BMP280;69558;39.208;-77.226;2024-02-28T13:38:20;98965.94;;;16.64
80246;BMP280;69558;39.208;-77.226;2024-02-28T13:40:46;98958.88;;;16.64
80246;BMP280;69558;39.208;-77.226;2024-02-28T13:43:13;98929.09;;;16.59
80246;BMP280;69558;39.208;-77.226;2024-02-28T13:45:40;98928.47;;;16.63